Impacts TAF Board
For situational awareness. Not to be used for flight planning purposes.
IDs:

KLAX - Los Angeles Intl, CA, US

Issued at 1730 UTC 22 Sep 2018
Updated at 1844 UTC 22 Sep 2018
Potential Impact None Slight Moderate High
Time<<23/07Z 23/08Z 23/09Z 23/10Z 23/11Z 23/12Z 23/13Z 23/14Z 23/15Z 23/16Z 23/17Z 23/18Z 23/19Z>>
Type PRVL PRVL PRVL PRVL PRVL PRVL PRVL PRVL PRVL PRVL PRVL PRVL PRVL
VIS >6 >6 >6 >6 4 4 4 4 4 >6 >6 >6 >6
CIG 8 8 8 8 6 6 6 6 6 -- -- -- --
Cover BKN BKN BKN BKN OVC OVC OVC OVC OVC SCT SCT SCT SCT
FltCat IFR IFR IFR IFR IFR IFR IFR IFR IFR VFR VFR VFR VFR
WX -- -- -- -- BR BR BR BR BR -- -- -- --
WDir 260 260 260 260 VRB VRB VRB VRB VRB VRB VRB VRB VRB
WSpd 8 8 8 8 3 3 3 3 3 3 3 3 3
WGst -- -- -- -- -- -- -- -- -- -- -- -- --
Raw TAF
KLAX 221730Z 2218/2324 27006KT P6SM FEW008
  FM222000 26012KT P6SM SCT008
  FM230300 26008KT P6SM BKN008
  FM231100 VRB03KT 4SM BR OVC006
  FM231600 VRB03KT P6SM SCT008
  FM232000 26012KT P6SM SCT008


METAR Board
Radar Display
Forecast Discussion
For situational awareness. Not to be used for flight planning purposes.